sensor_id;sensor_type;location;lat;lon;timestamp;temperature;humidity
39017;DHT22;24784;45.582;5.276;2024-01-15T00:00:43;2.50;99.90
39017;DHT22;24784;45.582;5.276;2024-01-15T00:03:09;2.50;99.90
39017;DHT22;24784;45.582;5.276;2024-01-15T00:05:36;2.50;99.90
39017;DHT22;24784;45.582;5.276;2024-01-15T00:08:01;2.50;99.90
39017;DHT22;24784;45.582;5.276;2024-01-15T00:10:27;2.50;99.90
39017;DHT22;24784;45.582;5.276;2024-01-15T00:12:53;2.50;99.90
39017;DHT22;24784;45.582;5.276;2024-01-15T00:15:18;2.50;99.90
39017;DHT22;24784;45.582;5.276;2024-01-15T00:17:44;2.50;99.90
39017;DHT22;24784;45.582;5.276;2024-01-15T00:20:10;2.50;99.90
39017;DHT22;24784;45.582;5.276;2024-01-15T00:22:36;2.50;99.90
39017;DHT22;24784;45.582;5.276;2024-01-15T00:25:02;2.50;99.90
39017;DHT22;24784;45.582;5.276;2024-01-15T00:27:28;2.50;99.90
39017;DHT22;24784;45.582;5.276;2024-01-15T00:29:54;2.50;99.90
39017;DHT22;24784;45.582;5.276;2024-01-15T00:32:20;2.50;99.90
39017;DHT22;24784;45.582;5.276;2024-01-15T00:34:46;2.50;99.90
39017;DHT22;24784;45.582;5.276;2024-01-15T00:37:12;2.50;99.90
39017;DHT22;24784;45.582;5.276;2024-01-15T00:39:37;2.50;99.90
39017;DHT22;24784;45.582;5.276;2024-01-15T00:42:03;2.50;99.90
39017;DHT22;24784;45.582;5.276;2024-01-15T00:44:29;2.60;99.90
39017;DHT22;24784;45.582;5.276;2024-01-15T00:46:55;2.50;99.90
39017;DHT22;24784;45.582;5.276;2024-01-15T00:49:20;2.50;99.90
39017;DHT22;24784;45.582;5.276;2024-01-15T00:51:47;2.40;99.90
39017;DHT22;24784;45.582;5.276;2024-01-15T00:54:12;2.40;99.90
39017;DHT22;24784;45.582;5.276;2024-01-15T00:56:38;2.40;99.90
39017;DHT22;24784;45.582;5.276;2024-01-15T00:59:04;2.50;99.90
39017;DHT22;24784;45.582;5.276;2024-01-15T01:01:29;2.50;99.90
39017;DHT22;24784;45.582;5.276;2024-01-15T01:03:55;2.50;99.90
39017;DHT22;24784;45.582;5.276;2024-01-15T01:06:20;2.50;99.90
39017;DHT22;24784;45.582;5.276;2024-01-15T01:08:46;2.50;99.90
39017;DHT22;24784;45.582;5.276;2024-01-15T01:11:15;2.60;99.90
39017;DHT22;24784;45.582;5.276;2024-01-15T01:13:41;2.50;99.90
39017;DHT22;24784;45.582;5.276;2024-01-15T01:16:07;2.60;99.90
39017;DHT22;24784;45.582;5.276;2024-01-15T01:18:33;2.60;99.90
39017;DHT22;24784;45.582;5.276;2024-01-15T01:20:58;2.60;99.90
39017;DHT22;24784;45.582;5.276;2024-01-15T01:23:24;2.60;99.90
39017;DHT22;24784;45.582;5.276;2024-01-15T01:25:49;2.60;99.90
39017;DHT22;24784;45.582;5.276;2024-01-15T01:28:15;2.60;99.90
39017;DHT22;24784;45.582;5.276;2024-01-15T01:30:41;2.60;99.90
39017;DHT22;24784;45.582;5.276;2024-01-15T01:33:06;2.50;99.90
39017;DHT22;24784;45.582;5.276;2024-01-15T01:35:32;2.50;99.90
39017;DHT22;24784;45.582;5.276;2024-01-15T01:37:57;2.60;99.90
39017;DHT22;24784;45.582;5.276;2024-01-15T01:40:23;2.50;99.90
39017;DHT22;24784;45.582;5.276;2024-01-15T01:42:49;2.60;99.90
39017;DHT22;24784;45.582;5.276;2024-01-15T01:45:15;2.60;99.90
39017;DHT22;24784;45.582;5.276;2024-01-15T01:47:41;2.60;99.90
39017;DHT22;24784;45.582;5.276;2024-01-15T01:50:07;2.60;99.90
39017;DHT22;24784;45.582;5.276;2024-01-15T01:52:33;2.60;99.90
39017;DHT22;24784;45.582;5.276;2024-01-15T01:55:00;2.60;99.90
39017;DHT22;24784;45.582;5.276;2024-01-15T01:57:27;2.60;99.90
39017;DHT22;24784;45.582;5.276;2024-01-15T01:59:54;2.60;99.90
39017;DHT22;24784;45.582;5.276;2024-01-15T02:02:20;2.60;99.90
39017;DHT22;24784;45.582;5.276;2024-01-15T02:04:47;2.60;99.90
39017;DHT22;24784;45.582;5.276;2024-01-15T02:07:13;2.70;99.90
39017;DHT22;24784;45.582;5.276;2024-01-15T02:09:39;2.60;99.90
39017;DHT22;24784;45.582;5.276;2024-01-15T02:12:05;2.60;99.90
39017;DHT22;24784;45.582;5.276;2024-01-15T02:14:31;2.60;99.90
39017;DHT22;24784;45.582;5.276;2024-01-15T02:16:56;2.60;99.90
39017;DHT22;24784;45.582;5.276;2024-01-15T02:19:22;2.60;99.90
39017;DHT22;24784;45.582;5.276;2024-01-15T02:21:48;2.60;99.90
39017;DHT22;24784;45.582;5.276;2024-01-15T02:24:13;2.60;99.90
39017;DHT22;24784;45.582;5.276;2024-01-15T02:26:39;2.60;99.90
39017;DHT22;24784;45.582;5.276;2024-01-15T02:29:07;2.60;99.90
39017;DHT22;24784;45.582;5.276;2024-01-15T02:31:34;2.60;99.90
39017;DHT22;24784;45.582;5.276;2024-01-15T02:34:00;2.50;99.90
39017;DHT22;24784;45.582;5.276;2024-01-15T02:36:26;2.50;99.90
39017;DHT22;24784;45.582;5.276;2024-01-15T02:38:51;2.50;99.90
39017;DHT22;24784;45.582;5.276;2024-01-15T02:41:17;2.50;99.90
39017;DHT22;24784;45.582;5.276;2024-01-15T02:43:42;2.50;99.90
39017;DHT22;24784;45.582;5.276;2024-01-15T02:46:08;2.50;99.90
39017;DHT22;24784;45.582;5.276;2024-01-15T02:48:34;2.50;99.90
39017;DHT22;24784;45.582;5.276;2024-01-15T02:51:02;2.50;99.90
39017;DHT22;24784;45.582;5.276;2024-01-15T02:53:28;2.50;99.90
39017;DHT22;24784;45.582;5.276;2024-01-15T02:55:53;2.50;99.90
39017;DHT22;24784;45.582;5.276;2024-01-15T02:58:19;2.50;99.90
39017;DHT22;24784;45.582;5.276;2024-01-15T03:00:45;2.40;99.90
39017;DHT22;24784;45.582;5.276;2024-01-15T03:03:12;2.40;99.90
39017;DHT22;24784;45.582;5.276;2024-01-15T03:05:37;2.40;99.90
39017;DHT22;24784;45.582;5.276;2024-01-15T03:08:03;2.40;99.90
39017;DHT22;24784;45.582;5.276;2024-01-15T03:10:29;2.40;99.90
39017;DHT22;24784;45.582;5.276;2024-01-15T03:12:55;2.40;99.90
39017;DHT22;24784;45.582;5.276;2024-01-15T03:15:20;2.40;99.90
39017;DHT22;24784;45.582;5.276;2024-01-15T03:17:46;2.50;99.90
39017;DHT22;24784;45.582;5.276;2024-01-15T03:20:11;2.50;99.90
39017;DHT22;24784;45.582;5.276;2024-01-15T03:22:37;2.50;99.90
39017;DHT22;24784;45.582;5.276;2024-01-15T03:25:04;2.50;99.90
39017;DHT22;24784;45.582;5.276;2024-01-15T03:27:29;2.50;99.90
39017;DHT22;24784;45.582;5.276;2024-01-15T03:29:55;2.40;99.90
39017;DHT22;24784;45.582;5.276;2024-01-15T03:32:21;2.40;99.90
39017;DHT22;24784;45.582;5.276;2024-01-15T03:34:46;2.50;99.90
39017;DHT22;24784;45.582;5.276;2024-01-15T03:37:13;2.50;99.90
39017;DHT22;24784;45.582;5.276;2024-01-15T03:39:38;2.50;99.90
39017;DHT22;24784;45.582;5.276;2024-01-15T03:42:04;2.40;99.90
39017;DHT22;24784;45.582;5.276;2024-01-15T03:44:30;2.50;99.90
39017;DHT22;24784;45.582;5.276;2024-01-15T03:46:55;2.50;99.90
39017;DHT22;24784;45.582;5.276;2024-01-15T03:49:21;2.50;99.90
39017;DHT22;24784;45.582;5.276;2024-01-15T03:51:47;2.50;99.90
39017;DHT22;24784;45.582;5.276;2024-01-15T03:54:12;2.50;99.90
39017;DHT22;24784;45.582;5.276;2024-01-15T03:56:38;2.50;99.90
39017;DHT22;24784;45.582;5.276;2024-01-15T03:59:03;2.50;99.90
39017;DHT22;24784;45.582;5.276;2024-01-15T04:01:29;2.50;99.90
39017;DHT22;24784;45.582;5.276;2024-01-15T04:03:55;2.50;99.90
39017;DHT22;24784;45.582;5.276;2024-01-15T04:06:20;2.50;99.90
39017;DHT22;24784;45.582;5.276;2024-01-15T04:08:46;2.50;99.90
39017;DHT22;24784;45.582;5.276;2024-01-15T04:11:12;2.40;99.90
39017;DHT22;24784;45.582;5.276;2024-01-15T04:13:37;2.40;99.90
39017;DHT22;24784;45.582;5.276;2024-01-15T04:16:03;2.50;99.90
39017;DHT22;24784;45.582;5.276;2024-01-15T04:18:29;2.50;99.90
39017;DHT22;24784;45.582;5.276;2024-01-15T04:20:54;2.60;99.90
39017;DHT22;24784;45.582;5.276;2024-01-15T04:23:20;2.50;99.90
39017;DHT22;24784;45.582;5.276;2024-01-15T04:25:46;2.50;99.90
39017;DHT22;24784;45.582;5.276;2024-01-15T04:28:12;2.50;99.90
39017;DHT22;24784;45.582;5.276;2024-01-15T04:30:37;2.50;99.90
39017;DHT22;24784;45.582;5.276;2024-01-15T04:33:03;2.50;99.90
39017;DHT22;24784;45.582;5.276;2024-01-15T04:35:30;2.50;99.90
39017;DHT22;24784;45.582;5.276;2024-01-15T04:37:56;2.50;99.90
39017;DHT22;24784;45.582;5.276;2024-01-15T04:40:21;2.50;99.90
39017;DHT22;24784;45.582;5.276;2024-01-15T04:42:47;2.50;99.90
39017;DHT22;24784;45.582;5.276;2024-01-15T04:45:13;2.50;99.90
39017;DHT22;24784;45.582;5.276;2024-01-15T04:47:39;2.50;99.90
39017;DHT22;24784;45.582;5.276;2024-01-15T04:50:05;2.60;99.90
39017;DHT22;24784;45.582;5.276;2024-01-15T04:52:31;2.60;99.90
39017;DHT22;24784;45.582;5.276;2024-01-15T04:54:56;2.60;99.90
39017;DHT22;24784;45.582;5.276;2024-01-15T04:57:22;2.60;99.90
39017;DHT22;24784;45.582;5.276;2024-01-15T04:59:47;2.60;99.90
39017;DHT22;24784;45.582;5.276;2024-01-15T05:02:13;2.60;99.90
39017;DHT22;24784;45.582;5.276;2024-01-15T05:04:39;2.60;99.90
39017;DHT22;24784;45.582;5.276;2024-01-15T05:07:05;2.60;99.90
39017;DHT22;24784;45.582;5.276;2024-01-15T05:09:30;2.50;99.90
39017;DHT22;24784;45.582;5.276;2024-01-15T05:11:56;2.60;99.90
39017;DHT22;24784;45.582;5.276;2024-01-15T05:14:21;2.60;99.90
39017;DHT22;24784;45.582;5.276;2024-01-15T05:16:48;2.60;99.90
39017;DHT22;24784;45.582;5.276;2024-01-15T05:19:13;2.50;99.90
39017;DHT22;24784;45.582;5.276;2024-01-15T05:21:39;2.60;99.90
39017;DHT22;24784;45.582;5.276;2024-01-15T05:24:05;2.50;99.90
39017;DHT22;24784;45.582;5.276;2024-01-15T05:26:30;2.50;99.90
39017;DHT22;24784;45.582;5.276;2024-01-15T05:28:56;2.50;99.90
39017;DHT22;24784;45.582;5.276;2024-01-15T05:31:22;2.50;99.90
39017;DHT22;24784;45.582;5.276;2024-01-15T05:33:47;2.50;99.90
39017;DHT22;24784;45.582;5.276;2024-01-15T05:36:13;2.50;99.90
39017;DHT22;24784;45.582;5.276;2024-01-15T05:38:39;2.50;99.90
39017;DHT22;24784;45.582;5.276;2024-01-15T05:41:05;2.50;99.90
39017;DHT22;24784;45.582;5.276;2024-01-15T05:43:31;2.50;99.90
39017;DHT22;24784;45.582;5.276;2024-01-15T05:45:56;2.50;99.90
39017;DHT22;24784;45.582;5.276;2024-01-15T05:48:22;2.50;99.90
39017;DHT22;24784;45.582;5.276;2024-01-15T05:50:48;2.50;99.90
39017;DHT22;24784;45.582;5.276;2024-01-15T05:53:13;2.50;99.90
39017;DHT22;24784;45.582;5.276;2024-01-15T05:55:40;2.50;99.90
39017;DHT22;24784;45.582;5.276;2024-01-15T05:58:06;2.50;99.90
39017;DHT22;24784;45.582;5.276;2024-01-15T06:00:31;2.50;99.90
39017;DHT22;24784;45.582;5.276;2024-01-15T06:02:58;2.50;99.90
39017;DHT22;24784;45.582;5.276;2024-01-15T06:05:25;2.50;99.90
39017;DHT22;24784;45.582;5.276;2024-01-15T06:07:50;2.50;99.90
39017;DHT22;24784;45.582;5.276;2024-01-15T06:10:16;2.50;99.90
39017;DHT22;24784;45.582;5.276;2024-01-15T06:12:43;2.50;99.90
39017;DHT22;24784;45.582;5.276;2024-01-15T06:15:09;2.50;99.90
39017;DHT22;24784;45.582;5.276;2024-01-15T06:17:34;2.50;99.90
39017;DHT22;24784;45.582;5.276;2024-01-15T06:20:00;2.50;99.90
39017;DHT22;24784;45.582;5.276;2024-01-15T06:22:25;2.50;99.90
39017;DHT22;24784;45.582;5.276;2024-01-15T06:24:51;2.50;99.90
39017;DHT22;24784;45.582;5.276;2024-01-15T06:27:17;2.50;99.90
39017;DHT22;24784;45.582;5.276;2024-01-15T06:29:45;2.50;99.90
39017;DHT22;24784;45.582;5.276;2024-01-15T06:32:12;2.50;99.90
39017;DHT22;24784;45.582;5.276;2024-01-15T06:34:38;2.50;99.90
39017;DHT22;24784;45.582;5.276;2024-01-15T06:37:04;2.50;99.90
39017;DHT22;24784;45.582;5.276;2024-01-15T06:39:30;2.50;99.90
39017;DHT22;24784;45.582;5.276;2024-01-15T06:41:55;2.50;99.90
39017;DHT22;24784;45.582;5.276;2024-01-15T06:44:21;2.50;99.90
39017;DHT22;24784;45.582;5.276;2024-01-15T06:46:47;2.50;99.90
39017;DHT22;24784;45.582;5.276;2024-01-15T06:49:12;2.50;99.90
39017;DHT22;24784;45.582;5.276;2024-01-15T06:51:38;2.50;99.90
39017;DHT22;24784;45.582;5.276;2024-01-15T06:54:04;2.40;99.90
39017;DHT22;24784;45.582;5.276;2024-01-15T06:56:31;2.40;99.90
39017;DHT22;24784;45.582;5.276;2024-01-15T06:58:56;2.50;99.90
39017;DHT22;24784;45.582;5.276;2024-01-15T07:01:22;2.50;99.90
39017;DHT22;24784;45.582;5.276;2024-01-15T07:03:48;2.50;99.90
39017;DHT22;24784;45.582;5.276;2024-01-15T07:06:13;2.40;99.90
39017;DHT22;24784;45.582;5.276;2024-01-15T07:08:40;2.40;99.90
39017;DHT22;24784;45.582;5.276;2024-01-15T07:11:06;2.50;99.90
39017;DHT22;24784;45.582;5.276;2024-01-15T07:13:32;2.40;99.90
39017;DHT22;24784;45.582;5.276;2024-01-15T07:15:58;2.40;99.90
39017;DHT22;24784;45.582;5.276;2024-01-15T07:18:24;2.40;99.90
39017;DHT22;24784;45.582;5.276;2024-01-15T07:20:50;2.40;99.90
39017;DHT22;24784;45.582;5.276;2024-01-15T07:23:16;2.50;99.90
39017;DHT22;24784;45.582;5.276;2024-01-15T07:25:42;2.50;99.90
39017;DHT22;24784;45.582;5.276;2024-01-15T07:28:08;2.50;99.90
39017;DHT22;24784;45.582;5.276;2024-01-15T07:30:34;2.50;99.90
39017;DHT22;24784;45.582;5.276;2024-01-15T07:32:59;2.50;99.90
39017;DHT22;24784;45.582;5.276;2024-01-15T07:35:25;2.50;99.90
39017;DHT22;24784;45.582;5.276;2024-01-15T07:37:51;2.50;99.90
39017;DHT22;24784;45.582;5.276;2024-01-15T07:40:16;2.60;99.90
39017;DHT22;24784;45.582;5.276;2024-01-15T07:42:42;2.60;99.90
39017;DHT22;24784;45.582;5.276;2024-01-15T07:45:10;2.60;99.90
39017;DHT22;24784;45.582;5.276;2024-01-15T07:47:36;2.60;99.90
39017;DHT22;24784;45.582;5.276;2024-01-15T07:50:02;2.60;99.90
39017;DHT22;24784;45.582;5.276;2024-01-15T07:52:28;2.60;99.90
39017;DHT22;24784;45.582;5.276;2024-01-15T07:54:53;2.60;99.90
39017;DHT22;24784;45.582;5.276;2024-01-15T07:57:20;2.60;99.90
39017;DHT22;24784;45.582;5.276;2024-01-15T07:59:45;2.60;99.90
39017;DHT22;24784;45.582;5.276;2024-01-15T08:02:11;2.60;99.90
39017;DHT22;24784;45.582;5.276;2024-01-15T08:04:37;2.70;99.90
39017;DHT22;24784;45.582;5.276;2024-01-15T08:07:04;2.70;99.90
39017;DHT22;24784;45.582;5.276;2024-01-15T08:09:32;2.70;99.90
39017;DHT22;24784;45.582;5.276;2024-01-15T08:11:58;2.60;99.90
39017;DHT22;24784;45.582;5.276;2024-01-15T08:14:24;2.70;99.90
39017;DHT22;24784;45.582;5.276;2024-01-15T08:16:49;2.70;99.90
39017;DHT22;24784;45.582;5.276;2024-01-15T08:19:16;2.70;99.90
39017;DHT22;24784;45.582;5.276;2024-01-15T08:21:41;2.80;99.90
39017;DHT22;24784;45.582;5.276;2024-01-15T08:24:08;2.70;99.90
39017;DHT22;24784;45.582;5.276;2024-01-15T08:26:34;2.70;99.90
39017;DHT22;24784;45.582;5.276;2024-01-15T08:28:59;2.80;99.90
39017;DHT22;24784;45.582;5.276;2024-01-15T08:31:25;2.80;99.90
39017;DHT22;24784;45.582;5.276;2024-01-15T08:33:51;2.90;99.90
39017;DHT22;24784;45.582;5.276;2024-01-15T08:36:17;2.90;99.90
39017;DHT22;24784;45.582;5.276;2024-01-15T08:38:43;2.90;99.90
39017;DHT22;24784;45.582;5.276;2024-01-15T08:41:09;2.80;99.90
39017;DHT22;24784;45.582;5.276;2024-01-15T08:43:35;2.80;99.90
39017;DHT22;24784;45.582;5.276;2024-01-15T08:46:00;2.90;99.90
39017;DHT22;24784;45.582;5.276;2024-01-15T08:48:26;2.90;99.90
39017;DHT22;24784;45.582;5.276;2024-01-15T08:50:55;2.90;99.90
39017;DHT22;24784;45.582;5.276;2024-01-15T08:53:22;3.00;99.90
39017;DHT22;24784;45.582;5.276;2024-01-15T08:55:48;3.00;99.90
39017;DHT22;24784;45.582;5.276;2024-01-15T08:58:14;3.00;99.90
39017;DHT22;24784;45.582;5.276;2024-01-15T09:00:40;3.10;99.90
39017;DHT22;24784;45.582;5.276;2024-01-15T09:03:06;3.10;99.90
39017;DHT22;24784;45.582;5.276;2024-01-15T09:05:31;3.10;99.90
39017;DHT22;24784;45.582;5.276;2024-01-15T09:07:57;3.20;99.90
39017;DHT22;24784;45.582;5.276;2024-01-15T09:10:23;3.20;99.90
39017;DHT22;24784;45.582;5.276;2024-01-15T09:12:49;3.30;99.90
39017;DHT22;24784;45.582;5.276;2024-01-15T09:15:15;3.30;99.90
39017;DHT22;24784;45.582;5.276;2024-01-15T09:17:40;3.30;99.90
39017;DHT22;24784;45.582;5.276;2024-01-15T09:20:08;3.30;99.90
39017;DHT22;24784;45.582;5.276;2024-01-15T09:22:34;3.30;99.90
39017;DHT22;24784;45.582;5.276;2024-01-15T09:24:59;3.30;99.90
39017;DHT22;24784;45.582;5.276;2024-01-15T09:27:25;3.30;99.90
39017;DHT22;24784;45.582;5.276;2024-01-15T09:29:54;3.30;99.90
39017;DHT22;24784;45.582;5.276;2024-01-15T09:32:20;3.30;99.90
39017;DHT22;24784;45.582;5.276;2024-01-15T09:34:46;3.40;99.90
39017;DHT22;24784;45.582;5.276;2024-01-15T09:37:12;3.40;99.90
39017;DHT22;24784;45.582;5.276;2024-01-15T09:39:37;3.40;99.90
39017;DHT22;24784;45.582;5.276;2024-01-15T09:42:03;3.50;99.90
39017;DHT22;24784;45.582;5.276;2024-01-15T09:44:30;3.60;99.90
39017;DHT22;24784;45.582;5.276;2024-01-15T09:46:56;3.60;99.90
39017;DHT22;24784;45.582;5.276;2024-01-15T09:49:22;3.60;99.90
39017;DHT22;24784;45.582;5.276;2024-01-15T09:51:48;3.60;99.90
39017;DHT22;24784;45.582;5.276;2024-01-15T09:54:15;3.60;99.90
39017;DHT22;24784;45.582;5.276;2024-01-15T09:56:46;3.60;99.90
39017;DHT22;24784;45.582;5.276;2024-01-15T09:59:18;3.60;99.90
39017;DHT22;24784;45.582;5.276;2024-01-15T10:01:44;3.70;99.90
39017;DHT22;24784;45.582;5.276;2024-01-15T10:04:13;3.70;99.90
39017;DHT22;24784;45.582;5.276;2024-01-15T10:06:44;3.70;99.90
39017;DHT22;24784;45.582;5.276;2024-01-15T10:09:13;3.70;99.90
39017;DHT22;24784;45.582;5.276;2024-01-15T10:11:42;3.70;99.90
39017;DHT22;24784;45.582;5.276;2024-01-15T10:14:12;3.80;99.90
39017;DHT22;24784;45.582;5.276;2024-01-15T10:16:39;3.90;99.90
39017;DHT22;24784;45.582;5.276;2024-01-15T10:19:04;3.90;99.90
39017;DHT22;24784;45.582;5.276;2024-01-15T10:21:32;4.00;99.90
39017;DHT22;24784;45.582;5.276;2024-01-15T10:24:00;3.90;99.90
39017;DHT22;24784;45.582;5.276;2024-01-15T10:26:26;3.90;99.90
39017;DHT22;24784;45.582;5.276;2024-01-15T10:28:52;3.90;99.90
39017;DHT22;24784;45.582;5.276;2024-01-15T10:31:18;4.00;99.90
39017;DHT22;24784;45.582;5.276;2024-01-15T10:33:45;4.00;99.90
39017;DHT22;24784;45.582;5.276;2024-01-15T10:36:10;4.00;99.90
39017;DHT22;24784;45.582;5.276;2024-01-15T10:38:39;4.10;99.90
39017;DHT22;24784;45.582;5.276;2024-01-15T10:41:04;4.20;99.90
39017;DHT22;24784;45.582;5.276;2024-01-15T10:43:30;4.10;99.90
39017;DHT22;24784;45.582;5.276;2024-01-15T10:45:56;4.20;99.90
39017;DHT22;24784;45.582;5.276;2024-01-15T10:48:22;4.20;99.90
39017;DHT22;24784;45.582;5.276;2024-01-15T10:50:48;4.20;99.90
39017;DHT22;24784;45.582;5.276;2024-01-15T10:53:15;4.10;99.90
39017;DHT22;24784;45.582;5.276;2024-01-15T10:55:42;4.10;99.90
39017;DHT22;24784;45.582;5.276;2024-01-15T10:58:09;4.10;99.90
39017;DHT22;24784;45.582;5.276;2024-01-15T11:00:38;4.10;99.90
39017;DHT22;24784;45.582;5.276;2024-01-15T11:03:05;4.10;99.90
39017;DHT22;24784;45.582;5.276;2024-01-15T11:05:38;4.20;99.90
39017;DHT22;24784;45.582;5.276;2024-01-15T11:08:06;4.20;99.90
39017;DHT22;24784;45.582;5.276;2024-01-15T11:13:14;4.20;99.90
39017;DHT22;24784;45.582;5.276;2024-01-15T11:18:34;4.20;99.90
39017;DHT22;24784;45.582;5.276;2024-01-15T11:21:20;4.20;99.90
39017;DHT22;24784;45.582;5.276;2024-01-15T11:23:55;4.20;99.90
39017;DHT22;24784;45.582;5.276;2024-01-15T11:26:33;4.20;99.90
39017;DHT22;24784;45.582;5.276;2024-01-15T11:29:01;4.20;99.90
39017;DHT22;24784;45.582;5.276;2024-01-15T11:34:15;4.20;99.90
39017;DHT22;24784;45.582;5.276;2024-01-15T11:42:03;4.30;99.90
39017;DHT22;24784;45.582;5.276;2024-01-15T11:44:29;4.30;99.90
39017;DHT22;24784;45.582;5.276;2024-01-15T11:47:02;4.30;99.90
39017;DHT22;24784;45.582;5.276;2024-01-15T11:50:02;4.30;99.90
39017;DHT22;24784;45.582;5.276;2024-01-15T11:52:37;4.30;99.90
39017;DHT22;24784;45.582;5.276;2024-01-15T11:57:58;4.30;99.90
39017;DHT22;24784;45.582;5.276;2024-01-15T12:00:26;4.30;99.90
39017;DHT22;24784;45.582;5.276;2024-01-15T12:02:51;4.30;99.90
39017;DHT22;24784;45.582;5.276;2024-01-15T12:05:19;4.30;99.90
39017;DHT22;24784;45.582;5.276;2024-01-15T12:07:47;4.30;99.90
39017;DHT22;24784;45.582;5.276;2024-01-15T12:10:17;4.30;99.90
39017;DHT22;24784;45.582;5.276;2024-01-15T12:15:24;4.30;99.90
39017;DHT22;24784;45.582;5.276;2024-01-15T12:17:50;4.30;99.90
39017;DHT22;24784;45.582;5.276;2024-01-15T12:20:17;4.20;99.90
39017;DHT22;24784;45.582;5.276;2024-01-15T12:22:43;4.30;99.90
39017;DHT22;24784;45.582;5.276;2024-01-15T12:25:10;4.30;99.90
39017;DHT22;24784;45.582;5.276;2024-01-15T12:27:36;4.40;99.90
39017;DHT22;24784;45.582;5.276;2024-01-15T12:30:02;4.40;99.90
39017;DHT22;24784;45.582;5.276;2024-01-15T12:32:29;4.50;99.90
39017;DHT22;24784;45.582;5.276;2024-01-15T12:34:55;4.50;99.90
39017;DHT22;24784;45.582;5.276;2024-01-15T12:37:35;4.50;99.90
39017;DHT22;24784;45.582;5.276;2024-01-15T12:40:03;4.50;99.90
39017;DHT22;24784;45.582;5.276;2024-01-15T12:42:30;4.50;99.90
39017;DHT22;24784;45.582;5.276;2024-01-15T12:44:59;4.50;99.90
39017;DHT22;24784;45.582;5.276;2024-01-15T12:47:25;4.60;99.90
39017;DHT22;24784;45.582;5.276;2024-01-15T12:49:52;4.50;99.90
39017;DHT22;24784;45.582;5.276;2024-01-15T12:52:21;4.50;99.90
39017;DHT22;24784;45.582;5.276;2024-01-15T12:54:48;4.60;99.90
39017;DHT22;24784;45.582;5.276;2024-01-15T12:57:14;4.60;99.90
39017;DHT22;24784;45.582;5.276;2024-01-15T12:59:40;4.50;99.90
39017;DHT22;24784;45.582;5.276;2024-01-15T13:02:06;4.50;99.90
39017;DHT22;24784;45.582;5.276;2024-01-15T13:04:32;4.50;99.90
39017;DHT22;24784;45.582;5.276;2024-01-15T13:06:58;4.50;99.90
39017;DHT22;24784;45.582;5.276;2024-01-15T13:09:23;4.60;99.90
39017;DHT22;24784;45.582;5.276;2024-01-15T13:11:49;4.60;99.90
39017;DHT22;24784;45.582;5.276;2024-01-15T13:14:14;4.60;99.90
39017;DHT22;24784;45.582;5.276;2024-01-15T13:16:41;4.60;99.90
39017;DHT22;24784;45.582;5.276;2024-01-15T13:19:08;4.50;99.90
39017;DHT22;24784;45.582;5.276;2024-01-15T13:21:34;4.60;99.90
39017;DHT22;24784;45.582;5.276;2024-01-15T13:24:00;4.60;99.90
39017;DHT22;24784;45.582;5.276;2024-01-15T13:26:25;4.60;99.90
39017;DHT22;24784;45.582;5.276;2024-01-15T13:28:51;4.60;99.90
39017;DHT22;24784;45.582;5.276;2024-01-15T13:31:17;4.60;99.90
39017;DHT22;24784;45.582;5.276;2024-01-15T13:33:42;4.60;99.90
39017;DHT22;24784;45.582;5.276;2024-01-15T13:36:08;4.60;99.90
39017;DHT22;24784;45.582;5.276;2024-01-15T13:38:36;4.60;99.90
39017;DHT22;24784;45.582;5.276;2024-01-15T13:41:07;4.70;99.90
39017;DHT22;24784;45.582;5.276;2024-01-15T13:43:33;4.70;99.90
39017;DHT22;24784;45.582;5.276;2024-01-15T13:45:59;4.70;99.90
39017;DHT22;24784;45.582;5.276;2024-01-15T13:48:25;4.70;99.90
39017;DHT22;24784;45.582;5.276;2024-01-15T13:50:52;4.70;99.90
39017;DHT22;24784;45.582;5.276;2024-01-15T13:53:17;4.70;99.90
39017;DHT22;24784;45.582;5.276;2024-01-15T13:55:44;4.60;99.90
39017;DHT22;24784;45.582;5.276;2024-01-15T13:58:10;4.60;99.90
39017;DHT22;24784;45.582;5.276;2024-01-15T14:00:36;4.70;99.90
39017;DHT22;24784;45.582;5.276;2024-01-15T14:03:02;4.70;99.90
39017;DHT22;24784;45.582;5.276;2024-01-15T14:05:28;4.70;99.90
39017;DHT22;24784;45.582;5.276;2024-01-15T14:07:54;4.70;99.90
39017;DHT22;24784;45.582;5.276;2024-01-15T14:10:20;4.70;99.90
39017;DHT22;24784;45.582;5.276;2024-01-15T14:12:46;4.80;99.90
39017;DHT22;24784;45.582;5.276;2024-01-15T14:15:11;4.80;99.90
39017;DHT22;24784;45.582;5.276;2024-01-15T14:17:37;4.80;99.90
39017;DHT22;24784;45.582;5.276;2024-01-15T14:20:04;4.80;99.90
39017;DHT22;24784;45.582;5.276;2024-01-15T14:22:30;4.80;99.90
39017;DHT22;24784;45.582;5.276;2024-01-15T14:24:56;4.90;99.90
39017;DHT22;24784;45.582;5.276;2024-01-15T14:27:22;4.80;99.90
39017;DHT22;24784;45.582;5.276;2024-01-15T14:29:47;4.80;99.90
39017;DHT22;24784;45.582;5.276;2024-01-15T14:32:13;4.80;99.90
39017;DHT22;24784;45.582;5.276;2024-01-15T14:34:38;4.80;99.90
39017;DHT22;24784;45.582;5.276;2024-01-15T14:37:04;4.80;99.90
39017;DHT22;24784;45.582;5.276;2024-01-15T14:39:30;4.90;99.90
39017;DHT22;24784;45.582;5.276;2024-01-15T14:41:59;4.90;99.90
39017;DHT22;24784;45.582;5.276;2024-01-15T14:44:25;4.90;99.90
39017;DHT22;24784;45.582;5.276;2024-01-15T14:46:50;4.90;99.90
39017;DHT22;24784;45.582;5.276;2024-01-15T14:49:16;4.80;99.90
39017;DHT22;24784;45.582;5.276;2024-01-15T14:51:43;4.80;99.90
39017;DHT22;24784;45.582;5.276;2024-01-15T14:54:10;4.80;99.90
39017;DHT22;24784;45.582;5.276;2024-01-15T14:56:35;4.80;99.90
39017;DHT22;24784;45.582;5.276;2024-01-15T14:59:01;4.80;99.90
39017;DHT22;24784;45.582;5.276;2024-01-15T15:01:27;4.70;99.90
39017;DHT22;24784;45.582;5.276;2024-01-15T15:03:52;4.80;99.90
39017;DHT22;24784;45.582;5.276;2024-01-15T15:06:18;4.80;99.90
39017;DHT22;24784;45.582;5.276;2024-01-15T15:08:44;4.70;99.90
39017;DHT22;24784;45.582;5.276;2024-01-15T15:11:09;4.70;99.90
39017;DHT22;24784;45.582;5.276;2024-01-15T15:13:36;4.60;99.90
39017;DHT22;24784;45.582;5.276;2024-01-15T15:16:02;4.60;99.90
39017;DHT22;24784;45.582;5.276;2024-01-15T15:18:27;4.60;99.90
39017;DHT22;24784;45.582;5.276;2024-01-15T15:20:55;4.60;99.90
39017;DHT22;24784;45.582;5.276;2024-01-15T15:23:21;4.60;99.90
39017;DHT22;24784;45.582;5.276;2024-01-15T15:25:47;4.60;99.90
39017;DHT22;24784;45.582;5.276;2024-01-15T15:28:13;4.60;99.90
39017;DHT22;24784;45.582;5.276;2024-01-15T15:30:40;4.60;99.90
39017;DHT22;24784;45.582;5.276;2024-01-15T15:33:05;4.50;99.90
39017;DHT22;24784;45.582;5.276;2024-01-15T15:35:31;4.50;99.90
39017;DHT22;24784;45.582;5.276;2024-01-15T15:37:57;4.50;99.90
39017;DHT22;24784;45.582;5.276;2024-01-15T15:40:22;4.50;99.90
39017;DHT22;24784;45.582;5.276;2024-01-15T15:42:50;4.50;99.90
39017;DHT22;24784;45.582;5.276;2024-01-15T15:45:15;4.40;99.90
39017;DHT22;24784;45.582;5.276;2024-01-15T15:47:41;4.40;99.90
39017;DHT22;24784;45.582;5.276;2024-01-15T15:50:07;4.40;99.90
39017;DHT22;24784;45.582;5.276;2024-01-15T15:52:33;4.40;99.90
39017;DHT22;24784;45.582;5.276;2024-01-15T15:55:00;4.40;99.90
39017;DHT22;24784;45.582;5.276;2024-01-15T15:57:26;4.40;99.90